Meeting Creek, Kentucky
Current Conditions -  °F | °C
As of 5:58 PM on Saturday 25 Oct 2014 (Local Time) from KFTK Reporting Station
Clear Clear  
Wind Chill: 74°   Ceiling: Unl
Heat Index: 74°   Visibility: 10mi
Dew Point: 59°   Wind: 8mph
Humidity: 60%   Direction: 270°W
Pressure: 29.97"   Gusts: NA
Location:  37.6077°N, 86.1198°W
Report Text: KFTK 252158Z AUTO 27007KT 10SM CLR 23/15 A2997 RMK AO2 SLP149 T02310149
Loading
Personal Weather Stations






























Interactive Weather Map
Tropical Storm Tracking
New forecast layout! Learn more

10-Day Weather Forecast

Advertisements
Track Severe Weather on mobile